Roswell, GA (30075)

1:26 AM EST on November 28, 2014 (GMT -0500)
Roswell/Marietta/E. Cobb | Change Station
CLOSE
Current Station
Personal Weather Station
Location: Roswell, GA
Elevation: 1071 ft
Nearby Weather Stations

Elev 1071 ft 34.04 °N, 84.41 °W | Updated 1 second ago

Clear
Clear
31.4 °F
Feels Like 31 °F
N
0.0
Wind Variable Wind from NW
Gusts 0.0 mph

Today
High -- | Low -- °F
--% Chance of Precip.
Yesterday
High -- | Low -- °F
Precip. -- in
7:22 AM 5:28 PM
Waxing Crescent, 37% visible
Pressure 30.39 in
Visibility 10.0 miles
Clouds Clear
Windchill 31 °F
Dew Point 24 °F
Humidity 73%
Rainfall 0.00 in
Snow Depth Not available.
UV 0 out of 12
Pollen 1.60 out of 12
Air Quality Not available.
Flu Activity Not available.
METAR KMGE 280558Z AUTO 33009KT 10SM CLR 00/M05 A3036 RMK AO2 SLP289 T10021052 10042 21002 50000 $

More Conditions Fewer Conditions

Pressure 30.39 in
Visibility 10.0 miles
Clouds Clear
Windchill 31 °F
Dew Point 24 °F
Humidity 73%
Rainfall 0.00 in
Snow Depth Not available.
UV 0 out of 12
Pollen 1.60 out of 12
Air Quality Not available.
Flu Activity Not available.
METAR KMGE 280558Z AUTO 33009KT 10SM CLR 00/M05 A3036 RMK AO2 SLP289 T10021052 10042 21002 50000 $

More Conditions Fewer Conditions

10-Day Weather Forecast

Almanac

Astronomy

Nov. 28, 2014 Rise Set
Actual Time
Civil Twilight
Nautical Twilight
Astronomical Twilight
Moon
Length of Visible Light
Length of Day
Tomorrow will be .
, % of the Moon is Illuminated

Today's Extremes

State Highs State Lows

Community

WunderPhotos

Upload Photos

1,774,199 photos uploaded!

WunderBlogs® & News

Nearby

Air Quality

  Air Quality AQ Index Pollutant
Not available.

Snow Depth

Station Depth Elevation

Earthquake Activity

City Distance Mag. Time & Date
Minimum magnitude displayed is 2.5.

Coastal Water Temperatures

Place Temperature

Nearby Weather Stations